Time;durP1;ratioP1;P1;durP2;ratioP2;P2;SDS_P1;SDS_P2;PMS_P1;PMS_P2;Temp;Humidity;BMP_temperature;BMP_pressure;BME280_temperature;BME280_humidity;BME280_pressure;Samples;Min_cycle;Max_cycle;Signal;HPM_P1;HPM_P2
2023/04/25 00:00:41;;;;;;;19.85;13.50;;;;;;;13.97;100.00;99589.09;5046624;28;20515;-71
2023/04/25 00:03:08;;;;;;;17.92;14.15;;;;;;;13.31;100.00;99538.09;5024286;28;20025;-71
2023/04/25 00:05:34;;;;;;;16.15;14.45;;;;;;;14.04;100.00;99630.22;5044520;28;20246;-72
2023/04/25 00:08:00;;;;;;;17.50;13.65;;;;;;;13.47;100.00;99515.72;5040421;28;20564;-73
2023/04/25 00:10:25;;;;;;;16.08;14.00;;;;;;;14.13;100.00;99603.59;5025140;28;20119;-72
2023/04/25 00:12:51;;;;;;;21.25;15.52;;;;;;;13.82;100.00;99539.41;5024387;28;20050;-71
2023/04/25 00:15:17;;;;;;;15.57;13.98;;;;;;;13.76;100.00;99526.38;5044557;28;20075;-72
2023/04/25 00:17:43;;;;;;;19.27;15.50;;;;;;;14.29;100.00;99609.31;5038961;28;20041;-72
2023/04/25 00:20:09;;;;;;;21.60;15.63;;;;;;;13.89;100.00;99543.59;5034883;28;20044;-72
2023/04/25 00:22:37;;;;;;;18.90;15.77;;;;;;;13.75;100.00;99525.53;5040954;28;20045;-72
2023/04/25 00:25:06;;;;;;;21.02;13.43;;;;;;;14.14;100.00;99591.25;5048904;28;20114;-71
2023/04/25 00:27:32;;;;;;;16.80;14.02;;;;;;;14.44;100.00;99663.44;5048817;28;20036;-71
2023/04/25 00:29:57;;;;;;;16.50;14.02;;;;;;;13.71;100.00;99534.41;5042402;28;20041;-71
2023/04/25 00:32:23;;;;;;;17.95;13.00;;;;;;;14.33;100.00;99645.28;5029082;28;20060;-71
2023/04/25 00:34:48;;;;;;;18.35;14.90;;;;;;;13.73;100.00;99527.34;5039682;28;20060;-71
2023/04/25 00:37:14;;;;;;;18.70;14.13;;;;;;;13.74;100.00;99526.41;5042004;28;20136;-70
2023/04/25 00:39:39;;;;;;;20.30;13.27;;;;;;;13.72;100.00;99525.63;5027006;28;20040;-70
2023/04/25 00:42:05;;;;;;;20.52;14.73;;;;;;;14.32;100.00;99624.19;5036258;28;20025;-73
2023/04/25 00:44:32;;;;;;;17.65;14.20;;;;;;;13.58;100.00;99518.09;5034732;28;20089;-72
2023/04/25 00:46:57;;;;;;;15.93;13.52;;;;;;;14.22;100.00;99602.47;5029853;28;20136;-73
2023/04/25 00:49:23;;;;;;;23.60;13.30;;;;;;;14.45;100.00;99635.28;5032469;28;20137;-73
2023/04/25 00:51:49;;;;;;;18.48;14.30;;;;;;;14.41;100.00;99636.28;5037165;28;20047;-73
2023/04/25 00:54:15;;;;;;;20.17;14.73;;;;;;;14.14;100.00;99586.88;5034164;28;20036;-74
2023/04/25 00:56:41;;;;;;;16.35;14.60;;;;;;;14.28;100.00;99604.06;5033447;28;20573;-73
2023/04/25 00:59:08;;;;;;;16.92;14.80;;;;;;;13.71;100.00;99506.28;5016591;28;20047;-71
2023/04/25 01:01:34;;;;;;;22.30;15.30;;;;;;;14.32;100.00;99618.91;5022069;28;20064;-72
2023/04/25 01:04:00;;;;;;;23.83;14.55;;;;;;;14.26;100.00;99627.03;5031595;28;20144;-71
2023/04/25 01:06:27;;;;;;;17.38;14.45;;;;;;;14.23;100.00;99633.22;5014781;28;20468;-73
2023/04/25 01:08:53;;;;;;;18.45;14.63;;;;;;;14.28;100.00;99639.25;5022522;28;20048;-73
2023/04/25 01:11:18;;;;;;;24.27;16.25;;;;;;;14.13;100.00;99627.34;5036459;28;20052;-73
2023/04/25 01:13:44;;;;;;;20.58;14.30;;;;;;;14.13;100.00;99615.91;5039747;28;20095;-73
2023/04/25 01:16:09;;;;;;;17.98;14.77;;;;;;;14.15;100.00;99656.31;5035541;28;20069;-73
2023/04/25 01:18:38;;;;;;;34.53;15.70;;;;;;;13.57;100.00;99541.84;5033698;28;20029;-73
2023/04/25 01:21:13;;;;;;;26.20;14.50;;;;;;;13.73;100.00;99572.16;5026811;28;20048;-73
2023/04/25 01:23:40;;;;;;;22.33;17.02;;;;;;;13.48;100.00;99490.22;5039621;28;20056;-71
2023/04/25 01:26:08;;;;;;;18.70;15.52;;;;;;;14.06;100.00;99569.50;5046779;28;20408;-72
2023/04/25 01:28:34;;;;;;;21.08;16.50;;;;;;;13.05;100.00;99462.34;5037880;28;20072;-73
2023/04/25 01:31:00;;;;;;;18.90;14.50;;;;;;;13.16;100.00;99428.69;5045821;28;20132;-72
2023/04/25 01:33:26;;;;;;;20.17;16.65;;;;;;;13.85;100.00;99549.88;5047618;28;20094;-72
2023/04/25 01:35:52;;;;;;;23.77;16.05;;;;;;;12.50;100.00;99429.47;5045799;28;20052;-73
2023/04/25 01:38:17;;;;;;;25.27;17.83;;;;;;;13.45;100.00;99535.13;5040958;28;20057;-71
2023/04/25 01:40:45;;;;;;;24.90;18.15;;;;;;;13.68;100.00;99539.78;5047257;28;20045;-72
2023/04/25 01:43:11;;;;;;;21.08;17.75;;;;;;;13.44;100.00;99499.13;5048716;28;20564;-71
2023/04/25 01:45:41;;;;;;;21.67;16.95;;;;;;;13.01;100.00;99427.31;5026513;28;20444;-72
2023/04/25 01:48:08;;;;;;;26.92;19.13;;;;;;;13.50;100.00;99496.31;5042463;28;20037;-72
2023/04/25 01:50:34;;;;;;;19.63;17.30;;;;;;;13.05;100.00;99414.94;5027913;28;20049;-72
2023/04/25 01:53:01;;;;;;;24.85;18.23;;;;;;;13.32;100.00;99452.88;5022472;28;20358;-72
2023/04/25 01:55:27;;;;;;;25.88;19.30;;;;;;;13.62;100.00;99508.31;5026382;28;20049;-71
2023/04/25 01:57:52;;;;;;;32.72;17.63;;;;;;;13.50;100.00;99515.63;5026142;28;20068;-71
2023/04/25 02:00:18;;;;;;;20.00;16.50;;;;;;;13.42;100.00;99522.88;5027097;28;20037;-73
2023/04/25 02:02:44;;;;;;;20.75;17.30;;;;;;;13.42;100.00;99522.03;5023094;28;20042;-73
2023/04/25 02:05:09;;;;;;;22.63;18.17;;;;;;;12.77;100.00;99391.94;5026680;28;20057;-73
2023/04/25 02:07:35;;;;;;;21.65;18.45;;;;;;;12.44;100.00;99365.56;5025528;28;20053;-76
2023/04/25 02:10:01;;;;;;;25.77;17.58;;;;;;;13.19;100.00;99470.75;5031233;28;20143;-73
2023/04/25 02:12:27;;;;;;;26.33;16.50;;;;;;;12.87;100.00;99492.63;5038856;28;20045;-72
2023/04/25 02:14:53;;;;;;;21.40;15.65;;;;;;;12.87;100.00;99490.84;5032704;28;20129;-73
2023/04/25 02:17:19;;;;;;;19.23;13.52;;;;;;;12.43;100.00;99436.63;5025487;28;20065;-72
2023/04/25 02:19:44;;;;;;;24.60;12.35;;;;;;;12.43;100.00;99444.53;5026213;28;20049;-71
2023/04/25 02:22:10;;;;;;;16.92;12.80;;;;;;;12.36;100.00;99396.47;5031310;28;20048;-71
2023/04/25 02:24:36;;;;;;;23.83;13.25;;;;;;;12.55;100.00;99427.59;5046114;28;20468;-71
2023/04/25 02:27:01;;;;;;;15.75;13.10;;;;;;;12.51;100.00;99407.53;5040304;28;20397;-71
2023/04/25 02:29:27;;;;;;;17.30;13.40;;;;;;;11.96;100.00;99309.75;5026580;28;20083;-71
2023/04/25 02:31:52;;;;;;;15.10;11.98;;;;;;;12.72;100.00;99443.00;5027387;28;20504;-73
2023/04/25 02:34:17;;;;;;;18.00;12.55;;;;;;;12.01;100.00;99336.78;5027159;28;21234;-73
2023/04/25 02:36:43;;;;;;;15.48;11.80;;;;;;;11.75;100.00;99293.56;5024251;28;20052;-73
2023/04/25 02:39:08;;;;;;;16.58;10.57;;;;;;;11.71;100.00;99338.34;5046884;28;20043;-71
2023/04/25 02:41:34;;;;;;;14.15;9.95;;;;;;;12.08;100.00;99426.91;5055432;28;20731;-72
2023/04/25 02:43:59;;;;;;;15.90;10.75;;;;;;;11.93;100.00;99428.13;5034181;28;20045;-72
2023/04/25 02:46:25;;;;;;;13.50;10.25;;;;;;;12.13;100.00;99428.56;5016857;28;20049;-73
2023/04/25 02:48:50;;;;;;;15.40;12.70;;;;;;;12.03;100.00;99429.63;5023498;28;20044;-72
2023/04/25 02:51:16;;;;;;;21.30;11.93;;;;;;;11.79;100.00;99395.06;5026859;28;20095;-73
2023/04/25 02:53:42;;;;;;;19.83;12.35;;;;;;;11.48;100.00;99397.47;5026063;28;20041;-71
2023/04/25 02:56:07;;;;;;;14.95;10.38;;;;;;;11.19;100.00;99384.91;5026785;28;20057;-72
2023/04/25 02:58:33;;;;;;;15.77;9.48;;;;;;;11.47;100.00;99423.75;5037505;28;20723;-72
2023/04/25 03:00:58;;;;;;;17.90;10.88;;;;;;;10.41;100.00;99278.75;5041981;28;20076;-72
2023/04/25 03:03:24;;;;;;;15.43;10.32;;;;;;;10.19;100.00;99263.38;5025060;28;20040;-72
2023/04/25 03:05:50;;;;;;;27.02;10.10;;;;;;;10.87;100.00;99402.13;5016669;28;20041;-73
2023/04/25 03:08:17;;;;;;;16.35;9.27;;;;;;;10.21;100.00;99324.53;5035907;28;20397;-75
2023/04/25 03:10:42;;;;;;;14.90;9.27;;;;;;;10.03;100.00;99315.19;5024731;28;20136;-71
2023/04/25 03:13:08;;;;;;;25.45;11.38;;;;;;;10.10;100.00;99344.78;5025924;28;20128;-72
2023/04/25 03:15:35;;;;;;;11.90;9.73;;;;;;;10.36;100.00;99378.50;5025837;28;20060;-71
2023/04/25 03:18:01;;;;;;;15.07;10.55;;;;;;;9.76;100.00;99261.44;5024926;28;20052;-71
2023/04/25 03:20:27;;;;;;;16.48;10.68;;;;;;;9.44;100.00;99225.28;5024251;28;20050;-71
2023/04/25 03:22:52;;;;;;;14.13;10.90;;;;;;;9.81;100.00;99267.50;5033472;28;20041;-71
2023/04/25 03:25:18;;;;;;;15.23;10.70;;;;;;;9.91;100.00;99292.66;5032190;28;20049;-71
2023/04/25 03:27:43;;;;;;;19.90;11.73;;;;;;;9.62;100.00;99238.09;5034984;28;20033;-72
2023/04/25 03:30:09;;;;;;;15.63;11.18;;;;;;;10.32;100.00;99372.44;5045959;28;20091;-71
2023/04/25 03:32:35;;;;;;;15.52;11.45;;;;;;;9.55;100.00;99287.94;5040211;28;20056;-73
2023/04/25 03:35:00;;;;;;;18.55;12.02;;;;;;;9.34;100.00;99205.31;5044037;28;20049;-72
2023/04/25 03:37:26;;;;;;;17.83;12.93;;;;;;;9.38;100.00;99238.44;5043476;28;20143;-71
2023/04/25 03:39:51;;;;;;;18.48;12.40;;;;;;;9.21;100.00;99223.84;5044368;28;20048;-70
2023/04/25 03:42:17;;;;;;;17.38;11.77;;;;;;;9.08;100.00;99194.38;5058973;28;20400;-71
2023/04/25 03:44:43;;;;;;;18.85;11.85;;;;;;;9.52;100.00;99266.16;5034630;28;20056;-73
2023/04/25 03:47:08;;;;;;;18.63;13.13;;;;;;;9.04;100.00;99203.13;5029246;28;20053;-71
2023/04/25 03:49:35;;;;;;;14.35;10.88;;;;;;;9.87;100.00;99345.97;5029268;28;20848;-75
2023/04/25 03:52:01;;;;;;;22.30;12.40;;;;;;;9.11;100.00;99203.91;5017848;28;20127;-72
2023/04/25 03:54:26;;;;;;;16.08;13.30;;;;;;;9.10;100.00;99223.09;5029565;28;20536;-72
2023/04/25 03:56:52;;;;;;;19.95;12.73;;;;;;;9.16;100.00;99228.28;5017230;28;20203;-71
2023/04/25 03:59:17;;;;;;;20.10;12.93;;;;;;;9.75;100.00;99317.34;5040677;28;20041;-74
2023/04/25 04:01:43;;;;;;;15.68;12.57;;;;;;;9.94;100.00;99323.19;5045639;28;20045;-70
2023/04/25 04:04:08;;;;;;;19.10;12.30;;;;;;;9.98;100.00;99355.47;5038648;28;20046;-72
2023/04/25 04:06:34;;;;;;;14.60;11.73;;;;;;;8.78;100.00;99137.19;5033812;28;20204;-71
2023/04/25 04:08:59;;;;;;;15.18;12.73;;;;;;;9.84;100.00;99353.03;5029436;28;20041;-74
2023/04/25 04:11:25;;;;;;;16.27;12.95;;;;;;;9.50;100.00;99293.25;5042349;28;20501;-72
2023/04/25 04:13:51;;;;;;;20.08;14.45;;;;;;;9.20;100.00;99234.31;5047064;28;20536;-72
2023/04/25 04:16:16;;;;;;;15.60;12.63;;;;;;;10.26;100.00;99354.16;5047169;28;20120;-72
2023/04/25 04:18:42;;;;;;;15.10;12.52;;;;;;;9.81;100.00;99251.78;5048440;28;20469;-71
2023/04/25 04:21:07;;;;;;;21.25;14.13;;;;;;;10.16;100.00;99321.13;5048878;28;20037;-71
2023/04/25 04:23:33;;;;;;;23.40;14.77;;;;;;;10.03;100.00;99316.94;5031653;28;20103;-72
2023/04/25 04:25:59;;;;;;;16.42;12.52;;;;;;;10.24;100.00;99352.44;5038291;28;20497;-71
2023/04/25 04:28:26;;;;;;;16.85;13.93;;;;;;;10.22;100.00;99370.81;5026605;28;20052;-71
2023/04/25 04:30:52;;;;;;;22.45;13.98;;;;;;;9.58;100.00;99233.78;5046662;28;20048;-72
2023/04/25 04:33:19;;;;;;;24.60;13.23;;;;;;;10.28;100.00;99344.53;5049684;28;20485;-72
2023/04/25 04:35:46;;;;;;;19.98;12.55;;;;;;;10.24;100.00;99341.94;5044316;28;20762;-71
2023/04/25 04:38:14;;;;;;;17.33;12.55;;;;;;;9.87;100.00;99293.56;5033274;28;20523;-71
2023/04/25 04:40:41;;;;;;;15.25;11.93;;;;;;;10.53;100.00;99352.84;5030493;28;20055;-73
2023/04/25 04:43:08;;;;;;;16.08;12.15;;;;;;;9.90;100.00;99266.47;5036491;28;20045;-71
2023/04/25 04:45:34;;;;;;;22.88;14.80;;;;;;;10.24;100.00;99331.47;5026245;28;20041;-72
2023/04/25 04:47:59;;;;;;;17.08;12.52;;;;;;;10.25;100.00;99360.25;5027632;28;20078;-72
2023/04/25 04:50:27;;;;;;;29.55;12.50;;;;;;;9.49;100.00;99232.16;5039015;28;20136;-72
2023/04/25 04:52:55;;;;;;;21.55;12.48;;;;;;;10.11;100.00;99364.84;5023021;28;20044;-71
2023/04/25 04:55:20;;;;;;;18.27;12.75;;;;;;;9.98;100.00;99292.56;5012381;28;20081;-72
2023/04/25 04:57:45;;;;;;;28.13;14.88;;;;;;;10.63;100.00;99364.06;5018453;28;20053;-71
2023/04/25 05:00:11;;;;;;;25.88;15.02;;;;;;;10.15;100.00;99261.69;5019389;28;20551;-71
2023/04/25 05:02:38;;;;;;;31.23;16.17;;;;;;;10.74;100.00;99380.47;5013514;28;20053;-73
2023/04/25 05:05:04;;;;;;;76.13;67.63;;;;;;;10.33;100.00;99274.53;5026266;28;20072;-71
2023/04/25 05:07:30;;;;;;;40.88;19.27;;;;;;;10.34;100.00;99271.00;5022130;28;20376;-72
2023/04/25 05:09:55;;;;;;;40.30;20.10;;;;;;;10.44;100.00;99281.31;5024139;28;20429;-71
2023/04/25 05:12:21;;;;;;;29.90;18.60;;;;;;;10.71;100.00;99335.91;5028902;28;20499;-71
2023/04/25 05:14:47;;;;;;;23.73;15.00;;;;;;;10.93;100.00;99356.53;5021776;28;20057;-72
2023/04/25 05:17:12;;;;;;;41.70;17.80;;;;;;;10.88;100.00;99369.72;5034164;28;20064;-72
2023/04/25 05:19:39;;;;;;;23.33;15.27;;;;;;;10.46;100.00;99290.03;5037308;28;20060;-71
2023/04/25 05:22:04;;;;;;;21.55;15.55;;;;;;;10.90;100.00;99323.31;5029252;28;20517;-71
2023/04/25 05:24:30;;;;;;;22.85;16.67;;;;;;;10.00;100.00;99220.91;5030538;28;20215;-72
2023/04/25 05:26:56;;;;;;;25.42;16.13;;;;;;;10.45;100.00;99327.66;5041166;28;20044;-72
2023/04/25 05:29:21;;;;;;;21.25;15.07;;;;;;;10.49;100.00;99348.56;5023487;28;20128;-72
2023/04/25 05:31:48;;;;;;;30.90;16.73;;;;;;;10.24;100.00;99323.59;5034641;28;20052;-72
2023/04/25 05:34:13;;;;;;;25.48;17.10;;;;;;;10.26;100.00;99312.19;5019526;28;20155;-72
2023/04/25 05:36:39;;;;;;;22.80;17.98;;;;;;;10.40;100.00;99322.50;5024780;28;20385;-71
2023/04/25 05:39:06;;;;;;;32.97;19.42;;;;;;;10.12;100.00;99290.59;5046629;28;20041;-73
2023/04/25 05:41:31;;;;;;;27.58;18.98;;;;;;;10.22;100.00;99322.75;5045336;28;20044;-72
2023/04/25 05:43:57;;;;;;;31.63;19.70;;;;;;;10.24;100.00;99300.00;5053338;28;20757;-70
2023/04/25 05:46:22;;;;;;;19.63;17.30;;;;;;;9.98;100.00;99282.94;5031970;28;20132;-72
2023/04/25 05:48:47;;;;;;;27.83;19.13;;;;;;;10.03;100.00;99273.25;5022121;28;20374;-71
2023/04/25 05:51:13;;;;;;;30.27;20.63;;;;;;;9.96;100.00;99271.63;5027242;28;20037;-72
2023/04/25 05:53:38;;;;;;;31.00;18.98;;;;;;;10.01;100.00;99274.16;5026205;28;20037;-72
2023/04/25 05:56:04;;;;;;;34.92;21.63;;;;;;;9.34;100.00;99156.47;5025102;28;20050;-72
2023/04/25 05:58:30;;;;;;;28.95;22.67;;;;;;;9.08;100.00;99122.81;5023679;28;20098;-75
2023/04/25 06:00:55;;;;;;;27.65;21.20;;;;;;;10.00;100.00;99244.47;5027334;28;20042;-72
2023/04/25 06:03:21;;;;;;;29.30;20.17;;;;;;;9.92;100.00;99212.28;5044056;28;20032;-71
2023/04/25 06:05:46;;;;;;;24.90;20.75;;;;;;;10.35;100.00;99251.75;5044328;28;20052;-70
2023/04/25 06:08:12;;;;;;;28.80;21.17;;;;;;;9.44;100.00;99126.63;5044259;28;20045;-73
2023/04/25 06:10:37;;;;;;;34.10;23.65;;;;;;;10.06;100.00;99150.00;5044663;28;20044;-72
2023/04/25 06:13:04;;;;;;;30.25;24.13;;;;;;;10.69;100.00;99242.41;5041778;28;20069;-71
2023/04/25 06:15:32;;;;;;;106.32;95.18;;;;;;;10.48;100.00;99244.53;5040380;28;20041;-72
2023/04/25 06:17:58;;;;;;;174.82;154.93;;;;;;;10.03;100.00;99142.22;5018673;28;20561;-70
2023/04/25 06:20:24;;;;;;;50.95;41.50;;;;;;;10.53;100.00;99220.84;5036994;28;20135;-70
2023/04/25 06:22:54;;;;;;;81.03;61.78;;;;;;;10.87;100.00;99235.94;5045547;28;20048;-72
2023/04/25 06:25:20;;;;;;;76.53;64.45;;;;;;;10.19;100.00;99076.41;5044077;28;20095;-72
2023/04/25 06:27:45;;;;;;;33.00;21.90;;;;;;;9.82;100.00;99109.41;5044701;28;20029;-74
2023/04/25 06:30:12;;;;;;;34.60;26.58;;;;;;;10.71;100.00;99241.47;5038480;28;20036;-71
2023/04/25 06:32:38;;;;;;;31.45;24.27;;;;;;;9.76;100.00;99098.16;5044876;28;20107;-70
2023/04/25 06:35:05;;;;;;;37.53;24.23;;;;;;;9.80;100.00;99115.56;5045156;28;20071;-72
2023/04/25 06:37:30;;;;;;;31.10;24.60;;;;;;;10.38;100.00;99231.63;5036642;28;20085;-73
2023/04/25 06:39:56;;;;;;;32.67;22.77;;;;;;;9.77;100.00;99107.78;5023577;28;20588;-73
2023/04/25 06:42:21;;;;;;;39.97;26.17;;;;;;;10.64;100.00;99224.13;5051148;28;20041;-71
2023/04/25 06:44:47;;;;;;;29.30;22.38;;;;;;;9.92;100.00;99115.34;5031627;28;20530;-71
2023/04/25 06:47:13;;;;;;;30.50;23.00;;;;;;;10.24;100.00;99116.50;5039365;28;20053;-71
2023/04/25 06:49:39;;;;;;;30.75;21.58;;;;;;;10.71;100.00;99243.25;5033857;28;20057;-73
2023/04/25 06:52:04;;;;;;;30.08;21.08;;;;;;;10.53;100.00;99211.19;5024147;28;20468;-73
2023/04/25 06:54:30;;;;;;;40.33;24.95;;;;;;;10.46;100.00;99148.41;5025651;28;20025;-74
2023/04/25 06:56:56;;;;;;;34.90;23.95;;;;;;;10.45;100.00;99233.25;5026454;28;20036;-71
2023/04/25 06:59:22;;;;;;;35.67;27.63;;;;;;;10.46;100.00;99217.47;5017845;28;20048;-72
2023/04/25 07:01:47;;;;;;;33.50;26.42;;;;;;;10.16;100.00;99129.75;5031775;28;20052;-73
2023/04/25 07:04:13;;;;;;;30.55;26.55;;;;;;;9.16;100.00;99025.91;5040275;28;20099;-73
2023/04/25 07:06:42;;;;;;;38.85;25.13;;;;;;;10.13;100.00;99179.59;5042241;28;20045;-72
2023/04/25 07:09:09;;;;;;;38.58;27.13;;;;;;;10.77;100.00;99223.00;5046088;28;20059;-72
2023/04/25 07:11:35;;;;;;;40.58;27.83;;;;;;;10.30;100.00;99174.06;5049658;28;20049;-74
2023/04/25 07:14:01;;;;;;;37.70;25.60;;;;;;;10.41;100.00;99200.97;5042601;28;20053;-71
2023/04/25 07:16:26;;;;;;;32.58;28.90;;;;;;;10.00;100.00;99115.22;5049495;28;20059;-71
2023/04/25 07:18:52;;;;;;;43.40;28.23;;;;;;;9.75;100.00;99097.31;5049569;28;20107;-71
2023/04/25 07:21:17;;;;;;;30.55;24.45;;;;;;;10.14;100.00;99100.09;5049561;28;20036;-73
2023/04/25 07:23:43;;;;;;;29.23;25.88;;;;;;;10.56;100.00;99198.06;5038598;28;20136;-72
2023/04/25 07:26:08;;;;;;;33.28;23.60;;;;;;;10.53;100.00;99221.69;5038611;28;20045;-73
2023/04/25 07:28:40;;;;;;;32.00;25.88;;;;;;;9.42;100.00;99035.94;5024471;28;20080;-72
2023/04/25 07:31:23;;;;;;;34.30;24.85;;;;;;;9.33;100.00;98988.97;5019670;28;20079;-73
2023/04/25 07:33:49;;;;;;;38.35;26.58;;;;;;;10.35;100.00;99146.03;5034731;28;20056;-72
2023/04/25 07:36:17;;;;;;;42.90;27.38;;;;;;;10.73;100.00;99221.31;5015876;28;20179;-73
2023/04/25 07:38:42;;;;;;;38.97;24.55;;;;;;;10.22;100.00;99131.38;5026989;28;20148;-73
2023/04/25 07:41:09;;;;;;;38.17;25.73;;;;;;;10.57;100.00;99193.66;5022777;28;20033;-73
2023/04/25 07:43:36;;;;;;;35.50;27.85;;;;;;;10.47;100.00;99164.13;5035707;28;20045;-74
2023/04/25 07:46:04;;;;;;;31.73;25.65;;;;;;;10.95;100.00;99199.88;5013248;28;20531;-74
2023/04/25 07:48:33;;;;;;;38.10;27.80;;;;;;;10.28;100.00;99144.38;5015388;28;20060;-74
2023/04/25 07:51:01;;;;;;;34.10;25.20;;;;;;;10.33;100.00;99140.81;5046675;28;20120;-73
2023/04/25 07:53:34;;;;;;;37.38;28.73;;;;;;;10.16;100.00;99095.69;5035615;28;20401;-73
2023/04/25 07:56:00;;;;;;;41.42;28.58;;;;;;;10.87;100.00;99186.06;5042559;28;20505;-74
2023/04/25 07:58:25;;;;;;;39.13;31.05;;;;;;;10.30;100.00;99084.94;5042702;28;20055;-74
2023/04/25 08:00:51;;;;;;;111.63;61.83;;;;;;;10.95;100.00;99168.38;5042290;28;20041;-74
2023/04/25 08:03:16;;;;;;;48.20;33.28;;;;;;;10.74;100.00;99060.38;5021842;28;20116;-74
2023/04/25 08:05:42;;;;;;;45.15;30.35;;;;;;;11.38;100.00;99131.53;5021377;28;20209;-73
2023/04/25 08:08:07;;;;;;;42.25;33.58;;;;;;;10.84;100.00;99061.03;5033177;28;20050;-73
2023/04/25 08:10:33;;;;;;;47.58;31.95;;;;;;;11.04;100.00;99055.31;5021611;28;20658;-74
2023/04/25 08:12:59;;;;;;;45.83;34.75;;;;;;;11.72;100.00;99162.22;5012256;28;20064;-74
2023/04/25 08:15:26;;;;;;;49.38;36.67;;;;;;;11.94;100.00;99162.59;5036449;28;20029;-74
2023/04/25 08:17:52;;;;;;;40.25;33.70;;;;;;;11.86;100.00;99138.22;5044073;28;20041;-74
2023/04/25 08:20:18;;;;;;;42.55;34.88;;;;;;;11.77;100.00;99112.16;5045685;28;20052;-74
2023/04/25 08:22:44;;;;;;;41.58;34.97;;;;;;;11.69;100.00;99090.50;5034475;28;20041;-74
2023/04/25 08:25:10;;;;;;;46.35;36.22;;;;;;;11.92;100.00;99138.09;5039034;28;20057;-74
2023/04/25 08:27:35;;;;;;;43.95;36.97;;;;;;;12.21;100.00;99173.28;5040959;28;20527;-74
2023/04/25 08:30:03;;;;;;;48.42;37.75;;;;;;;12.12;100.00;99152.47;5052267;28;20373;-74
2023/04/25 08:32:28;;;;;;;53.83;38.85;;;;;;;12.09;100.00;99144.69;5044456;28;20139;-72
2023/04/25 08:34:55;;;;;;;49.22;37.83;;;;;;;12.31;100.00;99169.47;5030036;28;20541;-72
2023/04/25 08:37:21;;;;;;;50.65;37.45;;;;;;;12.20;100.00;99174.19;5017681;28;20401;-71
2023/04/25 08:39:48;;;;;;;45.95;37.20;;;;;;;11.57;100.00;99050.50;5027213;28;20041;-71
2023/04/25 08:42:14;;;;;;;39.70;32.70;;;;;;;11.85;100.00;99165.41;5034749;28;20033;-71
2023/04/25 08:44:40;;;;;;;44.85;32.40;;;;;;;11.91;100.00;99177.56;5018638;28;20057;-72
2023/04/25 08:47:06;;;;;;;36.15;32.15;;;;;;;12.11;100.00;99166.53;5026957;28;20126;-72
2023/04/25 08:49:33;;;;;;;38.70;34.38;;;;;;;11.62;100.00;99074.88;5026308;28;20049;-72
2023/04/25 08:52:07;;;;;;;42.10;30.48;;;;;;;11.12;100.00;99068.25;5026433;28;20045;-71
2023/04/25 08:54:32;;;;;;;40.30;31.50;;;;;;;11.60;100.00;99165.16;5026515;28;20366;-72
2023/04/25 08:57:02;;;;;;;38.03;30.63;;;;;;;12.08;100.00;99183.25;5027178;28;20044;-70
2023/04/25 08:59:28;;;;;;;41.63;30.83;;;;;;;12.31;100.00;99180.00;5023842;28;20424;-72
2023/04/25 09:01:54;;;;;;;37.30;33.20;;;;;;;11.29;100.00;99058.22;5023153;28;20045;-72
2023/04/25 09:04:20;;;;;;;38.40;30.95;;;;;;;11.72;100.00;99166.63;5027003;28;20128;-74
2023/04/25 09:06:47;;;;;;;35.65;29.70;;;;;;;11.78;100.00;99130.53;5026642;28;20473;-72
2023/04/25 09:09:13;;;;;;;44.30;33.67;;;;;;;12.33;100.00;99170.31;5026948;28;20123;-72
2023/04/25 09:11:38;;;;;;;42.88;31.05;;;;;;;11.92;100.00;99068.91;5024543;28;20493;-71
2023/04/25 09:14:30;;;;;;;32.92;29.38;;;;;;;12.80;100.00;99183.91;5051567;28;20072;-70
2023/04/25 09:16:56;;;;;;;41.90;31.27;;;;;;;12.16;100.00;99198.84;5025140;28;20061;-73
2023/04/25 09:19:26;;;;;;;48.28;30.60;;;;;;;12.48;100.00;99183.94;5026692;28;20061;-71
2023/04/25 09:22:00;;;;;;;50.28;30.88;;;;;;;12.74;100.00;99177.97;5028891;28;20049;-72
2023/04/25 09:24:35;;;;;;;38.95;32.13;;;;;;;11.91;100.00;99096.06;5046284;28;20124;-71
2023/04/25 09:27:06;;;;;;;34.53;30.80;;;;;;;11.75;100.00;99090.31;5026952;28;20042;-73
2023/04/25 09:29:37;;;;;;;38.65;29.02;;;;;;;11.86;100.00;99062.00;5021913;28;20080;-72
2023/04/25 09:32:22;;;;;;;33.30;29.35;;;;;;;12.88;100.00;99186.31;5026842;28;20056;-72
2023/04/25 09:34:50;;;;;;;39.20;30.05;;;;;;;12.16;100.00;99044.53;5026339;28;20037;-72
2023/04/25 09:37:20;;;;;;;35.10;30.65;;;;;;;13.06;100.00;99185.78;5030457;28;20057;-71
2023/04/25 09:39:47;;;;;;;39.25;31.08;;;;;;;12.44;100.00;99070.06;5043247;28;20782;-72
2023/04/25 09:42:15;;;;;;;34.28;30.75;;;;;;;13.13;100.00;99188.22;5026843;28;20037;-71
2023/04/25 09:44:45;;;;;;;39.70;32.25;;;;;;;13.11;100.00;99143.50;5026319;28;20076;-71
2023/04/25 09:47:13;;;;;;;36.95;30.13;;;;;;;12.78;100.00;99067.28;5035481;28;20073;-72
2023/04/25 09:49:42;;;;;;;34.00;28.55;;;;;;;13.37;100.00;99137.44;5018370;28;20045;-71
2023/04/25 09:52:08;;;;;;;36.03;30.42;;;;;;;13.19;100.00;99078.28;5031368;28;20063;-73
2023/04/25 09:54:34;;;;;;;36.42;29.65;;;;;;;13.47;100.00;99178.41;5038336;28;20041;-72
2023/04/25 09:57:12;;;;;;;37.90;30.83;;;;;;;13.16;100.00;99078.38;5046204;28;20033;-71
2023/04/25 09:59:42;;;;;;;37.83;31.15;;;;;;;13.31;100.00;99190.31;5041705;28;20576;-71
2023/04/25 10:02:09;;;;;;;39.08;26.08;;;;;;;12.77;100.00;99080.47;5041631;28;20041;-71
2023/04/25 10:04:36;;;;;;;33.10;29.13;;;;;;;13.36;100.00;99184.91;5061236;28;20041;-72
2023/04/25 10:07:08;;;;;;;30.80;26.45;;;;;;;13.77;100.00;99170.41;5038827;28;20053;-71
2023/04/25 10:09:37;;;;;;;32.95;29.23;;;;;;;13.78;100.00;99171.28;5039786;28;20048;-71
2023/04/25 10:12:05;;;;;;;33.03;28.45;;;;;;;13.56;100.00;99132.44;5038463;28;20053;-72
2023/04/25 10:14:31;;;;;;;36.20;29.65;;;;;;;13.72;100.00;99070.38;5040629;28;20053;-72
2023/04/25 10:16:57;;;;;;;31.88;28.50;;;;;;;13.73;100.00;99179.31;5043776;28;20052;-72
2023/04/25 10:19:24;;;;;;;33.22;29.10;;;;;;;13.23;100.00;99052.72;5036816;28;20045;-72
2023/04/25 10:22:02;;;;;;;34.78;29.95;;;;;;;14.06;100.00;99179.97;5025962;28;20805;-72
2023/04/25 10:24:28;;;;;;;34.67;29.05;;;;;;;13.54;100.00;99192.25;5038115;28;20409;-72
2023/04/25 10:26:54;;;;;;;33.85;28.73;;;;;;;13.15;100.00;99055.56;5041090;28;20045;-72
2023/04/25 10:29:24;;;;;;;40.25;32.08;;;;;;;12.92;100.00;99060.69;5028868;28;20095;-71
2023/04/25 10:31:50;;;;;;;41.22;33.33;;;;;;;14.03;100.00;99151.06;5031686;28;20117;-71
2023/04/25 10:34:16;;;;;;;41.30;36.85;;;;;;;14.15;100.00;99155.91;5015996;28;20052;-72
2023/04/25 10:36:42;;;;;;;41.47;36.55;;;;;;;14.47;100.00;99135.44;5020847;28;20766;-72
2023/04/25 10:39:11;;;;;;;40.03;34.70;;;;;;;13.78;100.00;99047.34;5015456;28;20041;-71
2023/04/25 10:41:50;;;;;;;38.85;33.63;;;;;;;14.07;100.00;99046.31;5024352;28;20065;-72
2023/04/25 10:44:16;;;;;;;243.27;76.35;;;;;;;14.29;100.00;99168.63;5031586;28;20045;-72
2023/04/25 10:46:44;;;;;;;107.20;39.53;;;;;;;13.78;100.00;99079.84;5054472;28;20106;-72
2023/04/25 10:49:10;;;;;;;43.70;33.35;;;;;;;14.53;100.00;99187.13;5043018;28;20246;-71
2023/04/25 10:51:36;;;;;;;33.33;27.95;;;;;;;14.82;100.00;99179.97;5025766;28;20465;-71
2023/04/25 10:54:04;;;;;;;32.03;28.08;;;;;;;14.78;100.00;99155.47;5024581;28;20034;-71
2023/04/25 10:56:43;;;;;;;39.10;29.30;;;;;;;14.76;100.00;99195.13;5023900;28;20117;-73
2023/04/25 10:59:15;;;;;;;31.75;28.35;;;;;;;14.97;100.00;99187.31;5023347;28;20417;-72
2023/04/25 11:02:07;;;;;;;30.65;27.42;;;;;;;14.42;100.00;99194.56;5016188;28;20061;-72
2023/04/25 11:04:33;;;;;;;30.48;27.25;;;;;;;14.86;100.00;99181.56;5026143;28;20053;-73
2023/04/25 11:07:05;;;;;;;31.40;26.27;;;;;;;14.82;100.00;99214.28;5019632;28;20452;-72